sensor_id;sensor_type;location;lat;lon;timestamp;pressure;altitude;pressure_sealevel;temperature;humidity
36222;BME280;22266;52.340;4.962;2022-12-18T00:00:48;102781.72;;;-1.47;76.48
36222;BME280;22266;52.340;4.962;2022-12-18T00:03:15;102765.75;;;-1.44;77.26
36222;BME280;22266;52.340;4.962;2022-12-18T00:05:51;102764.75;;;-1.41;76.93
36222;BME280;22266;52.340;4.962;2022-12-18T00:08:18;102765.09;;;-1.49;76.17
36222;BME280;22266;52.340;4.962;2022-12-18T00:10:45;102763.94;;;-1.43;76.79
36222;BME280;22266;52.340;4.962;2022-12-18T00:13:12;102766.69;;;-1.45;76.24
36222;BME280;22266;52.340;4.962;2022-12-18T00:15:39;102764.09;;;-1.46;76.32
36222;BME280;22266;52.340;4.962;2022-12-18T00:18:06;102756.25;;;-1.48;76.38
36222;BME280;22266;52.340;4.962;2022-12-18T00:20:37;102761.09;;;-1.58;76.88
36222;BME280;22266;52.340;4.962;2022-12-18T00:23:05;102766.53;;;-1.62;76.38
36222;BME280;22266;52.340;4.962;2022-12-18T00:25:36;102770.00;;;-1.60;76.78
36222;BME280;22266;52.340;4.962;2022-12-18T00:28:04;102770.75;;;-1.58;76.80
36222;BME280;22266;52.340;4.962;2022-12-18T00:30:30;102772.00;;;-1.65;77.17
36222;BME280;22266;52.340;4.962;2022-12-18T00:32:57;102759.91;;;-1.71;77.30
36222;BME280;22266;52.340;4.962;2022-12-18T00:35:24;102747.56;;;-1.70;77.44
36222;BME280;22266;52.340;4.962;2022-12-18T00:37:51;102757.94;;;-1.66;77.37
36222;BME280;22266;52.340;4.962;2022-12-18T00:40:17;102755.00;;;-1.60;77.36
36222;BME280;22266;52.340;4.962;2022-12-18T00:42:44;102766.50;;;-1.61;77.20
36222;BME280;22266;52.340;4.962;2022-12-18T00:45:27;102763.13;;;-1.64;76.60
36222;BME280;22266;52.340;4.962;2022-12-18T00:47:55;102769.41;;;-1.67;76.67
36222;BME280;22266;52.340;4.962;2022-12-18T00:50:24;102763.06;;;-1.63;77.17
36222;BME280;22266;52.340;4.962;2022-12-18T00:52:50;102762.28;;;-1.65;76.37
36222;BME280;22266;52.340;4.962;2022-12-18T00:55:17;102757.97;;;-1.67;77.06
36222;BME280;22266;52.340;4.962;2022-12-18T00:57:45;102764.13;;;-1.67;77.02
36222;BME280;22266;52.340;4.962;2022-12-18T01:00:14;102763.84;;;-1.61;76.80
36222;BME280;22266;52.340;4.962;2022-12-18T01:02:42;102758.50;;;-1.59;76.82
36222;BME280;22266;52.340;4.962;2022-12-18T01:05:10;102754.34;;;-1.65;76.06
36222;BME280;22266;52.340;4.962;2022-12-18T01:07:37;102762.28;;;-1.65;76.48
36222;BME280;22266;52.340;4.962;2022-12-18T01:10:04;102761.25;;;-1.62;76.74
36222;BME280;22266;52.340;4.962;2022-12-18T01:12:34;102766.41;;;-1.59;76.68
36222;BME280;22266;52.340;4.962;2022-12-18T01:15:00;102768.94;;;-1.56;76.57
36222;BME280;22266;52.340;4.962;2022-12-18T01:17:27;102774.00;;;-1.52;76.51
36222;BME280;22266;52.340;4.962;2022-12-18T01:19:54;102773.03;;;-1.49;76.40
36222;BME280;22266;52.340;4.962;2022-12-18T01:22:20;102767.78;;;-1.51;75.86
36222;BME280;22266;52.340;4.962;2022-12-18T01:24:46;102764.59;;;-1.57;76.34
36222;BME280;22266;52.340;4.962;2022-12-18T01:27:13;102762.94;;;-1.60;76.48
36222;BME280;22266;52.340;4.962;2022-12-18T01:29:40;102777.78;;;-1.57;76.35
36222;BME280;22266;52.340;4.962;2022-12-18T01:32:07;102786.16;;;-1.68;76.37
36222;BME280;22266;52.340;4.962;2022-12-18T01:34:36;102780.13;;;-1.70;76.03
36222;BME280;22266;52.340;4.962;2022-12-18T01:37:03;102776.66;;;-1.72;76.69
36222;BME280;22266;52.340;4.962;2022-12-18T01:39:31;102775.91;;;-1.74;76.11
36222;BME280;22266;52.340;4.962;2022-12-18T01:42:05;102776.75;;;-1.73;76.66
36222;BME280;22266;52.340;4.962;2022-12-18T01:45:01;102783.66;;;-1.71;76.50
36222;BME280;22266;52.340;4.962;2022-12-18T01:47:43;102772.97;;;-1.68;76.30
36222;BME280;22266;52.340;4.962;2022-12-18T01:50:25;102777.31;;;-1.67;76.60
36222;BME280;22266;52.340;4.962;2022-12-18T01:53:03;102791.53;;;-1.69;75.92
36222;BME280;22266;52.340;4.962;2022-12-18T01:55:37;102794.41;;;-1.76;76.50
36222;BME280;22266;52.340;4.962;2022-12-18T01:58:06;102805.06;;;-1.77;76.63
36222;BME280;22266;52.340;4.962;2022-12-18T02:00:32;102794.41;;;-1.76;76.14
36222;BME280;22266;52.340;4.962;2022-12-18T02:02:59;102804.41;;;-1.82;76.86
36222;BME280;22266;52.340;4.962;2022-12-18T02:05:44;102806.97;;;-1.81;77.03
36222;BME280;22266;52.340;4.962;2022-12-18T02:08:30;102812.97;;;-1.77;76.43
36222;BME280;22266;52.340;4.962;2022-12-18T02:11:39;102819.97;;;-1.76;76.90
36222;BME280;22266;52.340;4.962;2022-12-18T02:14:16;102820.28;;;-1.84;76.08
36222;BME280;22266;52.340;4.962;2022-12-18T02:28:20;102809.31;;;-1.95;76.63
36222;BME280;22266;52.340;4.962;2022-12-18T02:30:49;102802.34;;;-1.96;76.23
36222;BME280;22266;52.340;4.962;2022-12-18T02:33:19;102797.06;;;-1.96;76.37
36222;BME280;22266;52.340;4.962;2022-12-18T02:35:48;102801.38;;;-1.93;77.13
36222;BME280;22266;52.340;4.962;2022-12-18T02:38:16;102777.47;;;-1.90;76.87
36222;BME280;22266;52.340;4.962;2022-12-18T02:40:45;102773.09;;;-1.91;76.95
36222;BME280;22266;52.340;4.962;2022-12-18T02:43:16;102780.28;;;-1.95;76.08
36222;BME280;22266;52.340;4.962;2022-12-18T02:45:47;102773.75;;;-2.07;76.76
36222;BME280;22266;52.340;4.962;2022-12-18T02:48:16;102771.84;;;-2.03;77.13
36222;BME280;22266;52.340;4.962;2022-12-18T02:50:53;102768.97;;;-1.97;77.10
36222;BME280;22266;52.340;4.962;2022-12-18T02:53:45;102771.00;;;-2.04;76.64
36222;BME280;22266;52.340;4.962;2022-12-18T02:56:35;102763.94;;;-2.03;77.04
36222;BME280;22266;52.340;4.962;2022-12-18T02:59:20;102753.69;;;-2.11;76.34
36222;BME280;22266;52.340;4.962;2022-12-18T03:02:02;102759.25;;;-2.17;76.79
36222;BME280;22266;52.340;4.962;2022-12-18T03:04:38;102754.28;;;-2.25;76.56
36222;BME280;22266;52.340;4.962;2022-12-18T03:07:10;102762.00;;;-2.20;77.37
36222;BME280;22266;52.340;4.962;2022-12-18T03:09:44;102756.69;;;-2.18;77.34
36222;BME280;22266;52.340;4.962;2022-12-18T03:12:21;102755.75;;;-2.17;76.84
36222;BME280;22266;52.340;4.962;2022-12-18T03:17:25;102749.69;;;-2.19;77.54
36222;BME280;22266;52.340;4.962;2022-12-18T03:19:56;102750.41;;;-2.16;76.63
36222;BME280;22266;52.340;4.962;2022-12-18T03:22:27;102759.31;;;-2.18;76.47
36222;BME280;22266;52.340;4.962;2022-12-18T03:24:56;102757.00;;;-2.26;77.08
36222;BME280;22266;52.340;4.962;2022-12-18T03:27:25;102748.91;;;-2.21;77.10
36222;BME280;22266;52.340;4.962;2022-12-18T03:30:14;102747.88;;;-2.19;77.12
36222;BME280;22266;52.340;4.962;2022-12-18T03:32:42;102749.47;;;-2.15;77.19
36222;BME280;22266;52.340;4.962;2022-12-18T03:35:13;102739.97;;;-2.19;76.35
36222;BME280;22266;52.340;4.962;2022-12-18T03:37:41;102743.31;;;-2.14;76.60
36222;BME280;22266;52.340;4.962;2022-12-18T03:40:08;102733.66;;;-2.15;76.78
36222;BME280;22266;52.340;4.962;2022-12-18T03:42:48;102730.22;;;-2.17;76.14
36222;BME280;22266;52.340;4.962;2022-12-18T03:45:27;102737.41;;;-2.20;76.69
36222;BME280;22266;52.340;4.962;2022-12-18T03:48:11;102726.94;;;-2.22;76.44
36222;BME280;22266;52.340;4.962;2022-12-18T03:54:02;102729.94;;;-2.11;75.96
36222;BME280;22266;52.340;4.962;2022-12-18T03:56:40;102723.78;;;-2.10;76.16
36222;BME280;22266;52.340;4.962;2022-12-18T03:59:10;102727.38;;;-2.12;76.27
36222;BME280;22266;52.340;4.962;2022-12-18T04:01:42;102724.69;;;-2.11;76.50
36222;BME280;22266;52.340;4.962;2022-12-18T04:04:14;102712.53;;;-2.15;75.71
36222;BME280;22266;52.340;4.962;2022-12-18T04:06:45;102705.44;;;-2.13;75.48
36222;BME280;22266;52.340;4.962;2022-12-18T04:09:13;102704.63;;;-2.15;75.69
36222;BME280;22266;52.340;4.962;2022-12-18T04:11:45;102696.78;;;-2.16;76.09
36222;BME280;22266;52.340;4.962;2022-12-18T04:14:14;102699.44;;;-2.16;76.03
36222;BME280;22266;52.340;4.962;2022-12-18T04:16:44;102697.75;;;-2.19;75.59
36222;BME280;22266;52.340;4.962;2022-12-18T04:19:14;102700.22;;;-2.14;76.16
36222;BME280;22266;52.340;4.962;2022-12-18T04:21:43;102697.50;;;-2.13;75.62
36222;BME280;22266;52.340;4.962;2022-12-18T04:24:11;102696.66;;;-2.13;75.70
36222;BME280;22266;52.340;4.962;2022-12-18T04:26:43;102695.81;;;-2.14;75.74
36222;BME280;22266;52.340;4.962;2022-12-18T04:29:14;102700.28;;;-2.16;75.52
36222;BME280;22266;52.340;4.962;2022-12-18T04:31:41;102704.56;;;-2.13;75.13
36222;BME280;22266;52.340;4.962;2022-12-18T04:34:08;102705.44;;;-2.13;75.47
36222;BME280;22266;52.340;4.962;2022-12-18T04:36:40;102712.50;;;-2.13;74.86
36222;BME280;22266;52.340;4.962;2022-12-18T04:39:07;102720.44;;;-2.15;74.58
36222;BME280;22266;52.340;4.962;2022-12-18T04:41:34;102728.38;;;-2.15;75.10
36222;BME280;22266;52.340;4.962;2022-12-18T04:44:01;102727.50;;;-2.15;75.16
36222;BME280;22266;52.340;4.962;2022-12-18T04:46:28;102727.47;;;-2.14;74.75
36222;BME280;22266;52.340;4.962;2022-12-18T04:48:54;102735.31;;;-2.12;74.43
36222;BME280;22266;52.340;4.962;2022-12-18T04:51:21;102734.38;;;-2.11;74.37
36222;BME280;22266;52.340;4.962;2022-12-18T04:53:52;102739.66;;;-2.11;74.05
36222;BME280;22266;52.340;4.962;2022-12-18T04:56:18;102738.91;;;-2.15;74.50
36222;BME280;22266;52.340;4.962;2022-12-18T04:58:45;102746.06;;;-2.17;73.68
36222;BME280;22266;52.340;4.962;2022-12-18T05:01:15;102749.69;;;-2.19;73.84
36222;BME280;22266;52.340;4.962;2022-12-18T05:03:42;102752.31;;;-2.19;74.38
36222;BME280;22266;52.340;4.962;2022-12-18T05:06:09;102752.19;;;-2.16;74.01
36222;BME280;22266;52.340;4.962;2022-12-18T05:08:36;102751.34;;;-2.17;73.63
36222;BME280;22266;52.340;4.962;2022-12-18T05:11:05;102752.19;;;-2.16;73.75
36222;BME280;22266;52.340;4.962;2022-12-18T05:13:32;102753.91;;;-2.15;73.52
36222;BME280;22266;52.340;4.962;2022-12-18T05:15:59;102750.28;;;-2.13;73.74
36222;BME280;22266;52.340;4.962;2022-12-18T05:18:26;102755.69;;;-2.16;73.37
36222;BME280;22266;52.340;4.962;2022-12-18T05:20:53;102757.59;;;-2.19;73.52
36222;BME280;22266;52.340;4.962;2022-12-18T05:23:21;102758.59;;;-2.22;73.25
36222;BME280;22266;52.340;4.962;2022-12-18T05:26:00;102764.72;;;-2.21;73.79
36222;BME280;22266;52.340;4.962;2022-12-18T05:28:28;102762.13;;;-2.23;73.63
36222;BME280;22266;52.340;4.962;2022-12-18T05:30:58;102756.81;;;-2.21;73.79
36222;BME280;22266;52.340;4.962;2022-12-18T05:33:26;102753.38;;;-2.24;72.89
36222;BME280;22266;52.340;4.962;2022-12-18T05:35:57;102749.94;;;-2.26;72.58
36222;BME280;22266;52.340;4.962;2022-12-18T05:38:25;102745.66;;;-2.28;73.06
36222;BME280;22266;52.340;4.962;2022-12-18T05:40:52;102743.09;;;-2.30;73.20
36222;BME280;22266;52.340;4.962;2022-12-18T05:43:20;102741.38;;;-2.31;72.61
36222;BME280;22266;52.340;4.962;2022-12-18T05:45:48;102740.75;;;-2.37;73.11
36222;BME280;22266;52.340;4.962;2022-12-18T05:48:15;102734.69;;;-2.39;73.05
36222;BME280;22266;52.340;4.962;2022-12-18T05:50:44;102732.97;;;-2.40;72.68
36222;BME280;22266;52.340;4.962;2022-12-18T05:53:15;102731.50;;;-2.47;72.83
36222;BME280;22266;52.340;4.962;2022-12-18T05:55:43;102727.44;;;-2.55;73.15
36222;BME280;22266;52.340;4.962;2022-12-18T05:58:11;102724.06;;;-2.58;72.78
36222;BME280;22266;52.340;4.962;2022-12-18T06:00:39;102721.47;;;-2.60;72.43
36222;BME280;22266;52.340;4.962;2022-12-18T06:03:11;102724.97;;;-2.59;72.73
36222;BME280;22266;52.340;4.962;2022-12-18T06:05:40;102717.25;;;-2.64;72.11
36222;BME280;22266;52.340;4.962;2022-12-18T06:08:07;102715.91;;;-2.74;72.38
36222;BME280;22266;52.340;4.962;2022-12-18T06:10:33;102721.09;;;-2.72;72.97
36222;BME280;22266;52.340;4.962;2022-12-18T06:13:00;102713.16;;;-2.71;72.94
36222;BME280;22266;52.340;4.962;2022-12-18T06:15:27;102724.47;;;-2.69;72.72
36222;BME280;22266;52.340;4.962;2022-12-18T06:17:53;102722.66;;;-2.67;72.57
36222;BME280;22266;52.340;4.962;2022-12-18T06:20:20;102725.28;;;-2.67;72.17
36222;BME280;22266;52.340;4.962;2022-12-18T06:22:46;102723.69;;;-2.71;72.22
36222;BME280;22266;52.340;4.962;2022-12-18T06:25:13;102725.59;;;-2.75;72.00
36222;BME280;22266;52.340;4.962;2022-12-18T06:27:40;102723.00;;;-2.76;71.91
36222;BME280;22266;52.340;4.962;2022-12-18T06:30:08;102717.00;;;-2.80;72.54
36222;BME280;22266;52.340;4.962;2022-12-18T06:32:34;102713.47;;;-2.79;71.88
36222;BME280;22266;52.340;4.962;2022-12-18T06:35:01;102701.19;;;-2.80;72.16
36222;BME280;22266;52.340;4.962;2022-12-18T06:37:27;102688.00;;;-2.80;72.06
36222;BME280;22266;52.340;4.962;2022-12-18T06:39:54;102674.06;;;-2.82;72.03
36222;BME280;22266;52.340;4.962;2022-12-18T06:42:22;102666.25;;;-2.85;72.01
36222;BME280;22266;52.340;4.962;2022-12-18T06:44:49;102659.59;;;-2.93;71.48
36222;BME280;22266;52.340;4.962;2022-12-18T06:47:15;102659.59;;;-2.93;71.88
36222;BME280;22266;52.340;4.962;2022-12-18T06:49:42;102659.47;;;-2.90;71.90
36222;BME280;22266;52.340;4.962;2022-12-18T06:52:09;102660.41;;;-2.91;71.34
36222;BME280;22266;52.340;4.962;2022-12-18T06:54:35;102655.38;;;-2.97;71.63
36222;BME280;22266;52.340;4.962;2022-12-18T06:57:02;102658.00;;;-2.97;71.93
36222;BME280;22266;52.340;4.962;2022-12-18T06:59:28;102657.16;;;-2.98;71.74
36222;BME280;22266;52.340;4.962;2022-12-18T07:01:54;102655.38;;;-2.97;71.54
36222;BME280;22266;52.340;4.962;2022-12-18T07:04:21;102649.25;;;-2.98;71.33
36222;BME280;22266;52.340;4.962;2022-12-18T07:06:47;102655.25;;;-2.94;71.81
36222;BME280;22266;52.340;4.962;2022-12-18T07:09:14;102654.41;;;-2.95;71.57
36222;BME280;22266;52.340;4.962;2022-12-18T07:11:40;102660.63;;;-2.97;71.42
36222;BME280;22266;52.340;4.962;2022-12-18T07:14:07;102664.13;;;-2.97;71.34
36222;BME280;22266;52.340;4.962;2022-12-18T07:16:34;102661.44;;;-2.95;71.31
36222;BME280;22266;52.340;4.962;2022-12-18T07:19:00;102657.94;;;-2.96;71.24
36222;BME280;22266;52.340;4.962;2022-12-18T07:21:27;102648.22;;;-2.94;70.69
36222;BME280;22266;52.340;4.962;2022-12-18T07:23:53;102653.47;;;-2.94;70.89
36222;BME280;22266;52.340;4.962;2022-12-18T07:26:21;102647.72;;;-3.04;71.14
36222;BME280;22266;52.340;4.962;2022-12-18T07:28:48;102655.63;;;-3.04;70.57
36222;BME280;22266;52.340;4.962;2022-12-18T07:31:18;102642.38;;;-3.02;70.54
36222;BME280;22266;52.340;4.962;2022-12-18T07:33:45;102633.44;;;-2.98;70.60
36222;BME280;22266;52.340;4.962;2022-12-18T07:36:12;102625.53;;;-2.98;70.94
36222;BME280;22266;52.340;4.962;2022-12-18T07:38:39;102616.97;;;-3.03;70.63
36222;BME280;22266;52.340;4.962;2022-12-18T07:41:11;102606.34;;;-3.02;71.22
36222;BME280;22266;52.340;4.962;2022-12-18T07:43:39;102593.38;;;-3.06;70.32
36222;BME280;22266;52.340;4.962;2022-12-18T07:46:08;102600.31;;;-3.04;70.64
36222;BME280;22266;52.340;4.962;2022-12-18T07:48:35;102598.22;;;-2.95;70.69
36222;BME280;22266;52.340;4.962;2022-12-18T07:51:05;102584.50;;;-3.04;70.78
36222;BME280;22266;52.340;4.962;2022-12-18T07:53:33;102578.44;;;-3.06;70.55
36222;BME280;22266;52.340;4.962;2022-12-18T07:56:01;102579.34;;;-3.07;70.33
36222;BME280;22266;52.340;4.962;2022-12-18T07:58:48;102581.72;;;-3.01;70.63
36222;BME280;22266;52.340;4.962;2022-12-18T08:01:15;102581.00;;;-2.84;72.32
36222;BME280;22266;52.340;4.962;2022-12-18T08:03:42;102582.47;;;-2.77;72.70
36222;BME280;22266;52.340;4.962;2022-12-18T08:06:09;102590.13;;;-2.70;71.46
36222;BME280;22266;52.340;4.962;2022-12-18T08:08:36;102592.88;;;-2.74;70.46
36222;BME280;22266;52.340;4.962;2022-12-18T08:11:03;102601.72;;;-2.75;70.99
36222;BME280;22266;52.340;4.962;2022-12-18T08:13:29;102603.34;;;-2.72;70.74
36222;BME280;22266;52.340;4.962;2022-12-18T08:15:57;102615.56;;;-2.69;70.78
36222;BME280;22266;52.340;4.962;2022-12-18T08:18:24;102618.94;;;-2.66;70.75
36222;BME280;22266;52.340;4.962;2022-12-18T08:20:51;102626.88;;;-2.67;70.62
36222;BME280;22266;52.340;4.962;2022-12-18T08:23:18;102629.72;;;-2.72;70.59
36222;BME280;22266;52.340;4.962;2022-12-18T08:25:44;102623.38;;;-2.68;70.63
36222;BME280;22266;52.340;4.962;2022-12-18T08:28:10;102620.63;;;-2.65;69.94
36222;BME280;22266;52.340;4.962;2022-12-18T08:30:37;102633.94;;;-2.68;69.72
36222;BME280;22266;52.340;4.962;2022-12-18T08:33:04;102629.59;;;-2.69;70.44
36222;BME280;22266;52.340;4.962;2022-12-18T08:35:30;102618.28;;;-2.71;70.29
36222;BME280;22266;52.340;4.962;2022-12-18T08:38:06;102610.38;;;-2.71;69.69
36222;BME280;22266;52.340;4.962;2022-12-18T08:40:32;102596.50;;;-2.76;69.62
36222;BME280;22266;52.340;4.962;2022-12-18T08:42:59;102602.09;;;-2.84;70.23
36222;BME280;22266;52.340;4.962;2022-12-18T08:45:44;102611.66;;;-2.81;70.39
36222;BME280;22266;52.340;4.962;2022-12-18T08:48:10;102605.53;;;-2.82;70.22
36222;BME280;22266;52.340;4.962;2022-12-18T08:50:37;102612.47;;;-2.79;70.93
36222;BME280;22266;52.340;4.962;2022-12-18T08:53:03;102610.41;;;-2.72;70.76
36222;BME280;22266;52.340;4.962;2022-12-18T08:55:30;102611.03;;;-2.66;70.54
36222;BME280;22266;52.340;4.962;2022-12-18T08:57:56;102599.53;;;-2.65;70.47
36222;BME280;22266;52.340;4.962;2022-12-18T09:00:23;102595.31;;;-2.69;69.70
36222;BME280;22266;52.340;4.962;2022-12-18T09:02:49;102593.53;;;-2.68;69.98
36222;BME280;22266;52.340;4.962;2022-12-18T09:05:16;102599.81;;;-2.71;70.54
36222;BME280;22266;52.340;4.962;2022-12-18T09:07:42;102604.94;;;-2.68;70.30
36222;BME280;22266;52.340;4.962;2022-12-18T09:10:10;102603.75;;;-2.61;70.23
36222;BME280;22266;52.340;4.962;2022-12-18T09:12:36;102607.22;;;-2.59;70.22
36222;BME280;22266;52.340;4.962;2022-12-18T09:15:03;102612.16;;;-2.51;70.41
36222;BME280;22266;52.340;4.962;2022-12-18T09:17:29;102603.50;;;-2.55;69.84
36222;BME280;22266;52.340;4.962;2022-12-18T09:19:56;102602.59;;;-2.54;70.10
36222;BME280;22266;52.340;4.962;2022-12-18T09:22:22;102604.28;;;-2.53;69.74
36222;BME280;22266;52.340;4.962;2022-12-18T09:24:49;102603.31;;;-2.50;70.46
36222;BME280;22266;52.340;4.962;2022-12-18T09:27:15;102602.31;;;-2.47;70.42
36222;BME280;22266;52.340;4.962;2022-12-18T09:29:42;102588.22;;;-2.46;69.83
36222;BME280;22266;52.340;4.962;2022-12-18T09:32:08;102587.38;;;-2.47;69.99
36222;BME280;22266;52.340;4.962;2022-12-18T09:34:35;102580.50;;;-2.51;69.94
36222;BME280;22266;52.340;4.962;2022-12-18T09:37:01;102580.44;;;-2.50;70.51
36222;BME280;22266;52.340;4.962;2022-12-18T09:39:28;102577.91;;;-2.53;70.45
36222;BME280;22266;52.340;4.962;2022-12-18T09:41:57;102575.94;;;-2.47;69.75
36222;BME280;22266;52.340;4.962;2022-12-18T09:44:27;102573.25;;;-2.46;70.06
36222;BME280;22266;52.340;4.962;2022-12-18T09:47:14;102563.47;;;-2.44;69.85
36222;BME280;22266;52.340;4.962;2022-12-18T09:49:50;102557.34;;;-2.44;70.04
36222;BME280;22266;52.340;4.962;2022-12-18T09:54:56;102547.72;;;-2.45;70.38
36222;BME280;22266;52.340;4.962;2022-12-18T09:57:26;102549.31;;;-2.41;70.62
36222;BME280;22266;52.340;4.962;2022-12-18T10:00:02;102547.72;;;-2.45;70.51
36222;BME280;22266;52.340;4.962;2022-12-18T10:02:36;102541.66;;;-2.47;70.22
36222;BME280;22266;52.340;4.962;2022-12-18T10:05:09;102563.25;;;-2.39;70.55
36222;BME280;22266;52.340;4.962;2022-12-18T10:07:50;102569.13;;;-2.33;70.78
36222;BME280;22266;52.340;4.962;2022-12-18T10:10:21;102574.63;;;-2.37;70.21
36222;BME280;22266;52.340;4.962;2022-12-18T10:18:14;102562.72;;;-2.27;70.10
36222;BME280;22266;52.340;4.962;2022-12-18T10:20:57;102560.03;;;-2.26;70.69
36222;BME280;22266;52.340;4.962;2022-12-18T10:23:33;102551.41;;;-2.29;70.49
36222;BME280;22266;52.340;4.962;2022-12-18T10:26:05;102543.63;;;-2.32;70.24
36222;BME280;22266;52.340;4.962;2022-12-18T10:28:33;102552.13;;;-2.26;70.37
36222;BME280;22266;52.340;4.962;2022-12-18T10:31:02;102543.84;;;-2.18;70.88
36222;BME280;22266;52.340;4.962;2022-12-18T10:33:32;102549.63;;;-2.10;70.62
36222;BME280;22266;52.340;4.962;2022-12-18T10:35:59;102539.00;;;-2.08;70.55
36222;BME280;22266;52.340;4.962;2022-12-18T10:38:31;102544.50;;;-2.13;70.10
36222;BME280;22266;52.340;4.962;2022-12-18T10:41:00;102541.00;;;-2.13;70.48
36222;BME280;22266;52.340;4.962;2022-12-18T10:43:29;102537.31;;;-2.09;70.14
36222;BME280;22266;52.340;4.962;2022-12-18T10:48:40;102531.09;;;-2.08;70.72
36222;BME280;22266;52.340;4.962;2022-12-18T10:51:08;102524.88;;;-2.07;69.87
36222;BME280;22266;52.340;4.962;2022-12-18T10:53:40;102517.81;;;-2.07;70.05
36222;BME280;22266;52.340;4.962;2022-12-18T10:56:08;102507.94;;;-2.02;70.51
36222;BME280;22266;52.340;4.962;2022-12-18T10:58:37;102504.25;;;-1.99;70.73
36222;BME280;22266;52.340;4.962;2022-12-18T11:03:37;102485.59;;;-1.94;70.31
36222;BME280;22266;52.340;4.962;2022-12-18T11:06:12;102487.94;;;-1.88;70.12
36222;BME280;22266;52.340;4.962;2022-12-18T11:08:41;102490.44;;;-1.32;81.85
36222;BME280;22266;52.340;4.962;2022-12-18T11:11:22;102494.38;;;-0.38;77.36
36222;BME280;22266;52.340;4.962;2022-12-18T11:14:05;102496.22;;;-0.56;72.24
36222;BME280;22266;52.340;4.962;2022-12-18T11:16:36;102482.09;;;-0.89;69.40
36222;BME280;22266;52.340;4.962;2022-12-18T11:19:35;102475.28;;;-1.11;69.24
36222;BME280;22266;52.340;4.962;2022-12-18T11:22:21;102476.25;;;-1.29;69.38
36222;BME280;22266;52.340;4.962;2022-12-18T11:25:05;102476.69;;;-1.38;69.97
36222;BME280;22266;52.340;4.962;2022-12-18T11:27:56;102483.97;;;-1.43;69.86
36222;BME280;22266;52.340;4.962;2022-12-18T11:33:01;102485.69;;;-1.42;70.18
36222;BME280;22266;52.340;4.962;2022-12-18T11:38:09;102465.41;;;-1.42;69.33
36222;BME280;22266;52.340;4.962;2022-12-18T11:40:38;102462.53;;;-1.55;69.67
36222;BME280;22266;52.340;4.962;2022-12-18T11:43:10;102455.94;;;-1.46;69.16
36222;BME280;22266;52.340;4.962;2022-12-18T11:45:45;102455.16;;;-1.48;69.68
36222;BME280;22266;52.340;4.962;2022-12-18T11:48:18;102448.78;;;-1.44;69.50
36222;BME280;22266;52.340;4.962;2022-12-18T11:50:53;102442.81;;;-1.47;69.33
36222;BME280;22266;52.340;4.962;2022-12-18T11:53:20;102434.81;;;-1.46;70.00
36222;BME280;22266;52.340;4.962;2022-12-18T11:56:11;102416.09;;;-1.41;69.14
36222;BME280;22266;52.340;4.962;2022-12-18T11:58:46;102412.66;;;-1.43;69.41
36222;BME280;22266;52.340;4.962;2022-12-18T12:07:17;102397.63;;;-1.41;69.10
36222;BME280;22266;52.340;4.962;2022-12-18T12:12:39;102398.63;;;-1.44;69.10
36222;BME280;22266;52.340;4.962;2022-12-18T12:24:11;102379.47;;;-1.14;69.27
36222;BME280;22266;52.340;4.962;2022-12-18T12:26:59;102369.69;;;-1.12;69.09
36222;BME280;22266;52.340;4.962;2022-12-18T12:37:58;102366.19;;;-1.13;69.12
36222;BME280;22266;52.340;4.962;2022-12-18T12:40:31;102358.72;;;-1.22;68.92
36222;BME280;22266;52.340;4.962;2022-12-18T12:43:35;102353.13;;;-1.16;68.46
36222;BME280;22266;52.340;4.962;2022-12-18T12:46:12;102344.94;;;-1.11;68.65
36222;BME280;22266;52.340;4.962;2022-12-18T12:48:48;102344.88;;;-1.10;68.65
36222;BME280;22266;52.340;4.962;2022-12-18T12:51:19;102357.06;;;-1.07;69.23
36222;BME280;22266;52.340;4.962;2022-12-18T12:53:48;102357.91;;;-1.07;69.05
36222;BME280;22266;52.340;4.962;2022-12-18T12:56:17;102355.81;;;-1.00;68.65
36222;BME280;22266;52.340;4.962;2022-12-18T13:01:34;102348.84;;;-0.69;75.43
36222;BME280;22266;52.340;4.962;2022-12-18T13:09:24;102331.13;;;-0.67;69.40
36222;BME280;22266;52.340;4.962;2022-12-18T13:11:51;102328.31;;;-0.80;68.94
36222;BME280;22266;52.340;4.962;2022-12-18T13:14:39;102321.97;;;-0.78;69.09
36222;BME280;22266;52.340;4.962;2022-12-18T13:19:44;102325.31;;;-0.74;68.78
36222;BME280;22266;52.340;4.962;2022-12-18T13:22:28;102326.84;;;-0.70;68.98
36222;BME280;22266;52.340;4.962;2022-12-18T13:24:56;102317.22;;;-0.71;68.92
36222;BME280;22266;52.340;4.962;2022-12-18T13:38:34;102273.22;;;-0.88;68.61
36222;BME280;22266;52.340;4.962;2022-12-18T13:41:03;102264.50;;;-0.90;68.68
36222;BME280;22266;52.340;4.962;2022-12-18T13:43:39;102254.59;;;-0.86;69.16
36222;BME280;22266;52.340;4.962;2022-12-18T13:46:27;102250.94;;;-0.84;69.83
36222;BME280;22266;52.340;4.962;2022-12-18T13:49:01;102253.50;;;-0.82;69.14
36222;BME280;22266;52.340;4.962;2022-12-18T13:51:31;102258.94;;;-0.85;69.07
36222;BME280;22266;52.340;4.962;2022-12-18T13:54:12;102260.69;;;-0.84;69.58
36222;BME280;22266;52.340;4.962;2022-12-18T13:56:46;102258.03;;;-0.84;68.99
36222;BME280;22266;52.340;4.962;2022-12-18T13:59:39;102255.38;;;-0.84;69.08
36222;BME280;22266;52.340;4.962;2022-12-18T14:02:21;102251.13;;;-0.87;68.84
36222;BME280;22266;52.340;4.962;2022-12-18T14:04:48;102246.50;;;-0.83;69.38
36222;BME280;22266;52.340;4.962;2022-12-18T14:07:21;102242.25;;;-0.86;69.27
36222;BME280;22266;52.340;4.962;2022-12-18T14:09:52;102249.31;;;-0.86;69.24
36222;BME280;22266;52.340;4.962;2022-12-18T14:12:38;102251.63;;;-0.80;69.10
36222;BME280;22266;52.340;4.962;2022-12-18T14:15:41;102235.84;;;-0.20;72.60
36222;BME280;22266;52.340;4.962;2022-12-18T14:21:27;102235.59;;;-0.31;69.34
36222;BME280;22266;52.340;4.962;2022-12-18T14:24:16;102239.81;;;-0.43;69.25
36222;BME280;22266;52.340;4.962;2022-12-18T14:26:46;102231.38;;;-0.50;68.88
36222;BME280;22266;52.340;4.962;2022-12-18T14:29:22;102235.06;;;-0.52;68.99
36222;BME280;22266;52.340;4.962;2022-12-18T14:32:10;102225.88;;;-0.61;68.65
36222;BME280;22266;52.340;4.962;2022-12-18T14:34:51;102214.78;;;-0.67;68.55
36222;BME280;22266;52.340;4.962;2022-12-18T14:37:24;102198.97;;;-0.69;69.39